Time;durP1;ratioP1;P1;durP2;ratioP2;P2;SDS_P1;SDS_P2;PMS_P1;PMS_P2;Temp;Humidity;BMP_temperature;BMP_pressure;BME280_temperature;BME280_humidity;BME280_pressure;Samples;Min_cycle;Max_cycle;Signal;HPM_P1;HPM_P2
2022/09/10 00:02:18;;;;;;;;;;;15.40;99.90;;;;;;4986461;28;19914;-82
2022/09/10 00:04:44;;;;;;;;;;;15.40;99.90;;;;;;4986208;28;19914;-84
2022/09/10 00:07:10;;;;;;;;;;;15.40;99.90;;;;;;4994038;28;19909;-83
2022/09/10 00:09:36;;;;;;;;;;;15.40;99.90;;;;;;4992333;28;19914;-83
2022/09/10 00:12:01;;;;;;;;;;;18.40;99.90;;;;;;4985505;28;19914;-83
2022/09/10 00:14:27;;;;;;;;;;;17.70;99.90;;;;;;4979635;28;19916;-81
2022/09/10 00:16:53;;;;;;;;;;;15.30;99.90;;;;;;4974390;28;19914;-84
2022/09/10 00:19:20;;;;;;;;;;;15.30;99.90;;;;;;4983828;28;20008;-83
2022/09/10 00:21:47;;;;;;;;;;;17.30;99.90;;;;;;4987198;28;19984;-86
2022/09/10 00:24:12;;;;;;;;;;;15.30;99.90;;;;;;4984062;28;20036;-81
2022/09/10 00:26:38;;;;;;;;;;;15.30;99.90;;;;;;4985900;28;19980;-84
2022/09/10 00:29:05;;;;;;;;;;;15.30;99.90;;;;;;4985242;28;19960;-83
2022/09/10 00:31:31;;;;;;;;;;;15.40;99.90;;;;;;4987280;28;19918;-85
2022/09/10 00:33:57;;;;;;;;;;;15.40;99.90;;;;;;4985041;28;19917;-85
2022/09/10 00:36:24;;;;;;;;;;;15.40;99.90;;;;;;4985615;28;19914;-82
2022/09/10 00:38:50;;;;;;;;;;;15.40;99.90;;;;;;4981048;28;21086;-82
2022/09/10 00:41:17;;;;;;;;;;;15.50;99.90;;;;;;5001858;28;19914;-82
2022/09/10 00:43:45;;;;;;;;;;;15.50;99.90;;;;;;4987201;28;19910;-84
2022/09/10 00:46:10;;;;;;;;;;;15.50;99.90;;;;;;4977261;28;19918;-84
2022/09/10 00:48:36;;;;;;;;;;;15.50;99.90;;;;;;4985187;28;20295;-83
2022/09/10 00:51:03;;;;;;;;;;;15.40;99.90;;;;;;4988893;28;19910;-82
2022/09/10 00:53:29;;;;;;;;;;;15.50;99.90;;;;;;4984617;28;19917;-87
2022/09/10 00:55:57;;;;;;;;;;;15.50;99.90;;;;;;4981121;28;19941;-82
2022/09/10 00:58:25;;;;;;;;;;;15.50;99.90;;;;;;4991480;28;19932;-82
2022/09/10 01:00:55;;;;;;;;;;;15.50;99.90;;;;;;4985062;28;19926;-81
2022/09/10 01:03:20;;;;;;;;;;;15.50;99.90;;;;;;4982405;28;19920;-80
2022/09/10 01:05:46;;;;;;;;;;;15.50;99.90;;;;;;4988616;28;19910;-79
2022/09/10 01:08:13;;;;;;;;;;;15.50;99.90;;;;;;4985780;28;19917;-84
2022/09/10 01:10:58;;;;;;;;;;;15.50;99.90;;;;;;4983526;28;19933;-82
2022/09/10 01:13:30;;;;;;;;;;;15.50;99.90;;;;;;4971653;28;19962;-85
2022/09/10 01:16:10;;;;;;;;;;;15.50;99.90;;;;;;4989004;28;20017;-83
2022/09/10 01:18:59;;;;;;;;;;;15.40;99.90;;;;;;4987993;28;19914;-81
2022/09/10 01:21:29;;;;;;;;;;;15.40;99.90;;;;;;4989043;28;19922;-81
2022/09/10 01:23:57;;;;;;;;;;;15.40;99.90;;;;;;4987743;28;19910;-83
2022/09/10 01:26:28;;;;;;;;;;;15.40;99.90;;;;;;4985117;28;19910;-81
2022/09/10 01:29:08;;;;;;;;;;;15.30;99.90;;;;;;4997409;28;20360;-83
2022/09/10 01:31:40;;;;;;;;;;;15.40;99.90;;;;;;4984537;28;20044;-85
2022/09/10 01:34:15;;;;;;;;;;;15.40;99.90;;;;;;4983113;28;19941;-84
2022/09/10 01:36:44;;;;;;;;;;;15.40;99.90;;;;;;4997426;28;19968;-83
2022/09/10 01:39:10;;;;;;;;;;;15.40;99.90;;;;;;4987066;28;19928;-83
2022/09/10 01:41:35;;;;;;;;;;;15.40;99.90;;;;;;4990283;28;20071;-82
2022/09/10 01:44:08;;;;;;;;;;;15.50;99.90;;;;;;4985795;28;20371;-83
2022/09/10 01:46:56;;;;;;;;;;;15.40;99.90;;;;;;4978097;28;19914;-78
2022/09/10 01:49:28;;;;;;;;;;;15.40;99.90;;;;;;4990164;28;19914;-81
2022/09/10 01:52:07;;;;;;;;;;;15.40;99.90;;;;;;4982730;28;20240;-82
2022/09/10 01:54:48;;;;;;;;;;;15.50;99.90;;;;;;4985038;28;19996;-84
2022/09/10 01:57:20;;;;;;;;;;;15.50;99.90;;;;;;5000205;28;20518;-82
2022/09/10 01:59:53;;;;;;;;;;;15.50;99.90;;;;;;4982992;28;19918;-82
2022/09/10 02:02:23;;;;;;;;;;;15.50;99.90;;;;;;4983631;28;20268;-83
2022/09/10 02:04:50;;;;;;;;;;;15.40;99.90;;;;;;4985784;28;19914;-81
2022/09/10 02:07:17;;;;;;;;;;;15.40;99.90;;;;;;4988960;28;19933;-82
2022/09/10 02:09:43;;;;;;;;;;;15.40;99.90;;;;;;4982934;28;19921;-81
2022/09/10 02:12:16;;;;;;;;;;;15.40;99.90;;;;;;4985463;28;19910;-80
2022/09/10 02:14:42;;;;;;;;;;;15.30;99.90;;;;;;4982379;28;19918;-81
2022/09/10 02:17:07;;;;;;;;;;;15.40;99.90;;;;;;4988902;28;19929;-82
2022/09/10 02:19:33;;;;;;;;;;;15.40;99.90;;;;;;4998240;28;19918;-79
2022/09/10 02:21:59;;;;;;;;;;;15.40;99.90;;;;;;5001242;28;19898;-87
2022/09/10 02:24:24;;;;;;;;;;;15.40;99.90;;;;;;5004399;28;19910;-86
2022/09/10 02:26:50;;;;;;;;;;;15.40;99.90;;;;;;4990572;28;19921;-79
2022/09/10 02:29:16;;;;;;;;;;;15.50;99.90;;;;;;4979015;28;19914;-83
2022/09/10 02:31:42;;;;;;;;;;;15.50;99.90;;;;;;4978103;28;19914;-83
2022/09/10 02:34:09;;;;;;;;;;;15.40;99.90;;;;;;4980287;28;19910;-84
2022/09/10 02:36:35;;;;;;;;;;;15.40;99.90;;;;;;4987949;28;19937;-84
2022/09/10 02:39:02;;;;;;;;;;;15.40;99.90;;;;;;4982586;28;19922;-83
2022/09/10 02:41:29;;;;;;;;;;;15.40;99.90;;;;;;4989542;28;20008;-82
2022/09/10 02:43:54;;;;;;;;;;;15.50;99.90;;;;;;4989828;28;20437;-81
2022/09/10 02:46:20;;;;;;;;;;;15.50;99.90;;;;;;4990691;28;19913;-82
2022/09/10 02:48:45;;;;;;;;;;;15.50;99.90;;;;;;4992737;28;19917;-85
2022/09/10 02:51:11;;;;;;;;;;;15.50;99.90;;;;;;4995937;28;19918;-84
2022/09/10 02:53:37;;;;;;;;;;;15.50;99.90;;;;;;4999395;28;19970;-85
2022/09/10 02:56:02;;;;;;;;;;;15.50;99.90;;;;;;5000725;28;19922;-83
2022/09/10 02:58:32;;;;;;;;;;;15.60;99.90;;;;;;5004985;28;19910;-84
2022/09/10 03:01:13;;;;;;;;;;;15.50;99.90;;;;;;5001456;28;19985;-85
2022/09/10 03:03:39;;;;;;;;;;;15.60;99.90;;;;;;5000377;28;19925;-84
2022/09/10 03:06:04;;;;;;;;;;;15.50;99.90;;;;;;5004013;28;19922;-82
2022/09/10 03:08:30;;;;;;;;;;;15.50;99.90;;;;;;4998920;28;19918;-85
2022/09/10 03:10:58;;;;;;;;;;;15.50;99.90;;;;;;4996843;28;19917;-86
2022/09/10 03:13:26;;;;;;;;;;;15.50;99.90;;;;;;4993112;28;19909;-86
2022/09/10 03:15:52;;;;;;;;;;;15.50;99.90;;;;;;4991129;28;19929;-84
2022/09/10 03:18:18;;;;;;;;;;;15.50;99.90;;;;;;5000616;28;19920;-86
2022/09/10 03:20:45;;;;;;;;;;;15.50;99.90;;;;;;4997395;28;19905;-86
2022/09/10 03:23:11;;;;;;;;;;;15.50;99.90;;;;;;4997285;28;19910;-84
2022/09/10 03:25:36;;;;;;;;;;;15.40;99.90;;;;;;4996875;28;19921;-83
2022/09/10 03:28:02;;;;;;;;;;;15.40;99.90;;;;;;4983627;28;19918;-84
2022/09/10 03:30:28;;;;;;;;;;;15.40;99.90;;;;;;4982071;28;19914;-84
2022/09/10 03:32:53;;;;;;;;;;;15.40;99.90;;;;;;5002206;28;19922;-82
2022/09/10 03:35:19;;;;;;;;;;;15.40;99.90;;;;;;4989555;28;20414;-81
2022/09/10 03:37:44;;;;;;;;;;;15.50;99.90;;;;;;4984899;28;19910;-82
2022/09/10 03:40:10;;;;;;;;;;;15.40;99.90;;;;;;4993845;28;19925;-84
2022/09/10 03:42:35;;;;;;;;;;;15.40;99.90;;;;;;4990636;28;20307;-84
2022/09/10 03:45:01;;;;;;;;;;;15.40;99.90;;;;;;4985634;28;19946;-81
2022/09/10 03:47:27;;;;;;;;;;;15.50;99.90;;;;;;4987696;28;19960;-80
2022/09/10 03:49:52;;;;;;;;;;;15.40;99.90;;;;;;4987931;28;19957;-82
2022/09/10 03:52:18;;;;;;;;;;;15.50;99.90;;;;;;4991861;28;19917;-84
2022/09/10 03:54:44;;;;;;;;;;;15.20;99.90;;;;;;4984476;28;19940;-81
2022/09/10 03:57:09;;;;;;;;;;;15.40;99.90;;;;;;4996879;28;19913;-84
2022/09/10 03:59:36;;;;;;;;;;;15.40;99.90;;;;;;4998880;28;19921;-82
2022/09/10 04:02:02;;;;;;;;;;;15.40;99.90;;;;;;4989834;28;19914;-84
2022/09/10 04:04:28;;;;;;;;;;;15.40;99.90;;;;;;4983372;28;19976;-85
2022/09/10 04:06:53;;;;;;;;;;;15.40;99.90;;;;;;4986845;28;20000;-84
2022/09/10 04:09:19;;;;;;;;;;;15.40;99.90;;;;;;4984451;28;19910;-80
2022/09/10 04:11:44;;;;;;;;;;;15.40;99.90;;;;;;4987342;28;19960;-81
2022/09/10 04:14:10;;;;;;;;;;;15.50;99.90;;;;;;4986727;28;20383;-82
2022/09/10 04:16:36;;;;;;;;;;;15.50;99.90;;;;;;4992108;28;19910;-83
2022/09/10 04:19:01;;;;;;;;;;;15.50;99.90;;;;;;4985695;28;19928;-82
2022/09/10 04:21:27;;;;;;;;;;;15.50;99.90;;;;;;4981980;28;19917;-82
2022/09/10 04:23:53;;;;;;;;;;;15.50;99.90;;;;;;4987255;28;19910;-84
2022/09/10 04:26:19;;;;;;;;;;;15.50;99.90;;;;;;4983993;28;19953;-83
2022/09/10 04:28:44;;;;;;;;;;;15.50;99.90;;;;;;4986489;28;19917;-85
2022/09/10 04:31:10;;;;;;;;;;;15.50;99.90;;;;;;4987211;28;19918;-82
2022/09/10 04:33:36;;;;;;;;;;;15.50;99.90;;;;;;5000760;28;19918;-80
2022/09/10 04:36:02;;;;;;;;;;;15.60;99.90;;;;;;4986719;28;19945;-80
2022/09/10 04:38:29;;;;;;;;;;;15.50;99.90;;;;;;4982777;28;20326;-81
2022/09/10 04:41:00;;;;;;;;;;;15.60;99.90;;;;;;4988347;28;19921;-80
2022/09/10 04:43:26;;;;;;;;;;;15.60;99.90;;;;;;4979691;28;19925;-83
2022/09/10 04:45:54;;;;;;;;;;;15.60;99.90;;;;;;4988832;28;19976;-85
2022/09/10 04:48:20;;;;;;;;;;;15.60;99.90;;;;;;4976624;28;19914;-83
2022/09/10 04:50:45;;;;;;;;;;;15.60;99.90;;;;;;4986845;28;19937;-81
2022/09/10 04:53:11;;;;;;;;;;;15.60;99.90;;;;;;4987425;28;19929;-80
2022/09/10 04:55:38;;;;;;;;;;;15.60;99.90;;;;;;4985525;28;19920;-78
2022/09/10 04:58:04;;;;;;;;;;;15.60;99.90;;;;;;4990631;28;19944;-81
2022/09/10 05:00:30;;;;;;;;;;;15.60;99.90;;;;;;4982725;28;19918;-82
2022/09/10 05:02:56;;;;;;;;;;;15.50;99.90;;;;;;4982384;28;19913;-83
2022/09/10 05:05:21;;;;;;;;;;;15.60;99.90;;;;;;4975766;28;20329;-85
2022/09/10 05:07:47;;;;;;;;;;;15.70;99.90;;;;;;4979651;28;19916;-83
2022/09/10 05:10:14;;;;;;;;;;;15.70;99.90;;;;;;4977131;28;20384;-81
2022/09/10 05:12:39;;;;;;;;;;;15.70;99.90;;;;;;4984579;28;19922;-86
2022/09/10 05:15:06;;;;;;;;;;;15.70;99.90;;;;;;4973754;28;19913;-83
2022/09/10 05:17:32;;;;;;;;;;;15.70;99.90;;;;;;4979261;28;20203;-79
2022/09/10 05:19:57;;;;;;;;;;;15.70;99.90;;;;;;4975681;28;20001;-83
2022/09/10 05:22:23;;;;;;;;;;;15.70;99.90;;;;;;4978750;28;20036;-81
2022/09/10 05:24:49;;;;;;;;;;;15.60;99.90;;;;;;4978594;28;20068;-86
2022/09/10 05:27:15;;;;;;;;;;;15.70;99.90;;;;;;4987933;28;19926;-80
2022/09/10 05:29:41;;;;;;;;;;;15.60;99.90;;;;;;4991221;28;19906;-83
2022/09/10 05:32:08;;;;;;;;;;;15.60;99.90;;;;;;4989092;28;19916;-82
2022/09/10 05:34:33;;;;;;;;;;;15.60;99.90;;;;;;4988260;28;19906;-85
2022/09/10 05:36:59;;;;;;;;;;;15.70;99.90;;;;;;4981570;28;20786;-83
2022/09/10 05:39:24;;;;;;;;;;;15.60;99.90;;;;;;4991334;28;19913;-83
2022/09/10 05:41:51;;;;;;;;;;;15.70;99.90;;;;;;4984009;28;19991;-83
2022/09/10 05:44:17;;;;;;;;;;;15.70;99.90;;;;;;4985298;28;19913;-83
2022/09/10 05:46:43;;;;;;;;;;;15.70;99.90;;;;;;4981428;28;19914;-83
2022/09/10 05:49:09;;;;;;;;;;;15.70;99.90;;;;;;4980963;28;19918;-84
2022/09/10 05:51:34;;;;;;;;;;;15.80;99.90;;;;;;4971438;28;20383;-81
2022/09/10 05:54:00;;;;;;;;;;;15.80;99.90;;;;;;4994399;28;19921;-87
2022/09/10 05:56:25;;;;;;;;;;;15.80;99.90;;;;;;4987697;28;19921;-85
2022/09/10 05:58:51;;;;;;;;;;;15.90;99.90;;;;;;4985809;28;19910;-81
2022/09/10 06:01:17;;;;;;;;;;;15.80;99.90;;;;;;4985224;28;20378;-81
2022/09/10 06:03:43;;;;;;;;;;;15.80;99.90;;;;;;4992245;28;19918;-82
2022/09/10 06:06:08;;;;;;;;;;;15.90;99.90;;;;;;4986212;28;19972;-85
2022/09/10 06:08:34;;;;;;;;;;;15.90;99.90;;;;;;4986707;28;19910;-82
2022/09/10 06:11:03;;;;;;;;;;;15.90;99.90;;;;;;4989451;28;19914;-82
2022/09/10 06:13:30;;;;;;;;;;;15.90;99.90;;;;;;4988438;28;19977;-81
2022/09/10 06:15:55;;;;;;;;;;;16.10;99.90;;;;;;4985890;28;19913;-84
2022/09/10 06:18:21;;;;;;;;;;;16.00;99.90;;;;;;4988034;28;19960;-82
2022/09/10 06:20:47;;;;;;;;;;;16.10;99.90;;;;;;4983642;28;19953;-81
2022/09/10 06:23:15;;;;;;;;;;;16.10;99.90;;;;;;4991132;28;19926;-83
2022/09/10 06:25:41;;;;;;;;;;;16.20;99.90;;;;;;4986020;28;19918;-85
2022/09/10 06:28:08;;;;;;;;;;;16.10;99.90;;;;;;4985065;28;20363;-83
2022/09/10 06:30:34;;;;;;;;;;;16.10;99.90;;;;;;4989111;28;19918;-83
2022/09/10 06:32:59;;;;;;;;;;;16.10;99.90;;;;;;4984881;28;19922;-82
2022/09/10 06:35:26;;;;;;;;;;;16.10;99.90;;;;;;4980938;28;20338;-79
2022/09/10 06:37:52;;;;;;;;;;;16.10;99.90;;;;;;4985927;28;19917;-80
2022/09/10 06:40:18;;;;;;;;;;;16.10;99.90;;;;;;4987103;28;19913;-83
2022/09/10 06:42:43;;;;;;;;;;;16.00;99.90;;;;;;4985239;28;19921;-81
2022/09/10 06:45:09;;;;;;;;;;;16.10;99.90;;;;;;4991276;28;19910;-86
2022/09/10 06:47:34;;;;;;;;;;;16.10;99.90;;;;;;4995658;28;19909;-82
2022/09/10 06:50:00;;;;;;;;;;;16.10;99.90;;;;;;4994120;28;20410;-83
2022/09/10 06:52:27;;;;;;;;;;;16.20;99.90;;;;;;4984577;28;19969;-82
2022/09/10 06:54:52;;;;;;;;;;;16.20;99.90;;;;;;4990335;28;19964;-82
2022/09/10 06:57:18;;;;;;;;;;;16.30;99.90;;;;;;4985843;28;19954;-84
2022/09/10 06:59:44;;;;;;;;;;;16.40;99.90;;;;;;4986066;28;20008;-82
2022/09/10 07:02:09;;;;;;;;;;;16.50;99.90;;;;;;4992799;28;20331;-82
2022/09/10 07:04:35;;;;;;;;;;;16.50;99.90;;;;;;4993021;28;20013;-84
2022/09/10 07:07:01;;;;;;;;;;;16.60;99.90;;;;;;4990597;28;19910;-84
2022/09/10 07:09:26;;;;;;;;;;;16.60;99.90;;;;;;4992250;28;20298;-82
2022/09/10 07:11:52;;;;;;;;;;;16.60;99.90;;;;;;4992041;28;19925;-81
2022/09/10 07:14:18;;;;;;;;;;;16.60;99.90;;;;;;4994288;28;19914;-85
2022/09/10 07:16:44;;;;;;;;;;;16.60;99.90;;;;;;4983492;28;19961;-85
2022/09/10 07:19:12;;;;;;;;;;;15.70;99.90;;;;;;4987491;28;19914;-83
2022/09/10 07:21:37;;;;;;;;;;;16.60;99.90;;;;;;4988122;28;19914;-83
2022/09/10 07:24:04;;;;;;;;;;;16.70;99.90;;;;;;4991213;28;19981;-82
2022/09/10 07:26:30;;;;;;;;;;;16.70;99.90;;;;;;4985693;28;20379;-82
2022/09/10 07:28:56;;;;;;;;;;;16.70;99.90;;;;;;4991191;28;19921;-80
2022/09/10 07:31:22;;;;;;;;;;;16.70;99.90;;;;;;4991744;28;19910;-79
2022/09/10 07:33:48;;;;;;;;;;;16.70;99.90;;;;;;4994250;28;20256;-83
2022/09/10 07:36:14;;;;;;;;;;;16.70;99.90;;;;;;4981252;28;19937;-82
2022/09/10 07:38:40;;;;;;;;;;;16.70;99.90;;;;;;4995245;28;19913;-86
2022/09/10 07:41:08;;;;;;;;;;;16.60;99.90;;;;;;4988709;28;20079;-85
2022/09/10 07:43:33;;;;;;;;;;;16.60;99.90;;;;;;4997636;28;19909;-82
2022/09/10 07:45:59;;;;;;;;;;;16.60;99.90;;;;;;4984193;28;19968;-82
2022/09/10 07:48:26;;;;;;;;;;;16.60;99.90;;;;;;4984918;28;19921;-81
2022/09/10 07:50:52;;;;;;;;;;;16.60;99.90;;;;;;4984652;28;19953;-80
2022/09/10 07:53:18;;;;;;;;;;;16.60;99.90;;;;;;4984486;28;19917;-83
2022/09/10 07:55:43;;;;;;;;;;;16.50;99.90;;;;;;4994057;28;19918;-83
2022/09/10 07:58:09;;;;;;;;;;;16.60;99.90;;;;;;4987997;28;19956;-81
2022/09/10 08:00:38;;;;;;;;;;;16.50;99.90;;;;;;4992781;28;19913;-82
2022/09/10 08:03:04;;;;;;;;;;;16.60;99.90;;;;;;4990581;28;19933;-82
2022/09/10 08:05:30;;;;;;;;;;;16.60;99.90;;;;;;4991399;28;19961;-81
2022/09/10 08:07:56;;;;;;;;;;;16.60;99.90;;;;;;4988289;28;19914;-83
2022/09/10 08:10:21;;;;;;;;;;;16.60;99.90;;;;;;4990750;28;20430;-84
2022/09/10 08:12:47;;;;;;;;;;;16.10;99.90;;;;;;4990143;28;19986;-82
2022/09/10 08:15:12;;;;;;;;;;;15.70;99.90;;;;;;4988904;28;19929;-79
2022/09/10 08:17:38;;;;;;;;;;;16.80;99.90;;;;;;4996842;28;19910;-83
2022/09/10 08:20:06;;;;;;;;;;;16.90;99.90;;;;;;4996542;28;19913;-82
2022/09/10 08:22:33;;;;;;;;;;;16.90;99.90;;;;;;4992656;28;19924;-83
2022/09/10 08:24:59;;;;;;;;;;;17.10;99.90;;;;;;4995789;28;19941;-80
2022/09/10 08:27:24;;;;;;;;;;;17.10;99.90;;;;;;4993290;28;19914;-80
2022/09/10 08:29:50;;;;;;;;;;;17.10;99.90;;;;;;4987780;28;19937;-80
2022/09/10 08:32:15;;;;;;;;;;;17.30;99.90;;;;;;4993366;28;19910;-84
2022/09/10 08:34:41;;;;;;;;;;;17.40;99.90;;;;;;4989785;28;19913;-81
2022/09/10 08:37:07;;;;;;;;;;;17.60;99.90;;;;;;4995685;28;19925;-80
2022/09/10 08:39:32;;;;;;;;;;;17.60;99.90;;;;;;4998819;28;19914;-84
2022/09/10 08:42:02;;;;;;;;;;;17.50;99.90;;;;;;4994794;28;20005;-84
2022/09/10 08:44:33;;;;;;;;;;;17.50;99.90;;;;;;4992806;28;19947;-84
2022/09/10 08:47:19;;;;;;;;;;;17.40;99.90;;;;;;5001665;28;19914;-83
2022/09/10 08:49:50;;;;;;;;;;;17.30;99.90;;;;;;4997332;28;19910;-86
2022/09/10 08:52:25;;;;;;;;;;;17.30;99.90;;;;;;4988452;28;19918;-81
2022/09/10 08:55:04;;;;;;;;;;;17.40;99.90;;;;;;4989278;28;19985;-82
2022/09/10 08:57:36;;;;;;;;;;;17.40;99.90;;;;;;4987774;28;19930;-82
2022/09/10 09:00:03;;;;;;;;;;;17.20;99.90;;;;;;4989708;28;19913;-84
2022/09/10 09:02:38;;;;;;;;;;;17.10;99.90;;;;;;4986871;28;19914;-82
2022/09/10 09:05:08;;;;;;;;;;;17.10;99.90;;;;;;4992936;28;19909;-82
2022/09/10 09:07:39;;;;;;;;;;;17.10;99.90;;;;;;4986827;28;20287;-84
2022/09/10 09:10:17;;;;;;;;;;;17.00;99.90;;;;;;4984269;28;19948;-83
2022/09/10 09:12:51;;;;;;;;;;;16.80;99.90;;;;;;4993056;28;19918;-83
2022/09/10 09:15:25;;;;;;;;;;;16.80;99.90;;;;;;4991643;28;19918;-83
2022/09/10 09:18:10;;;;;;;;;;;16.80;99.90;;;;;;4992516;28;19960;-82
2022/09/10 09:20:47;;;;;;;;;;;16.80;99.90;;;;;;4988602;28;19914;-84
2022/09/10 09:23:24;;;;;;;;;;;16.80;99.90;;;;;;4990768;28;19910;-85
2022/09/10 09:25:52;;;;;;;;;;;16.70;99.90;;;;;;4989193;28;19965;-84
2022/09/10 09:28:18;;;;;;;;;;;16.70;99.90;;;;;;4997575;28;19916;-84
2022/09/10 09:30:48;;;;;;;;;;;16.60;99.90;;;;;;4989068;28;19945;-84
2022/09/10 09:33:17;;;;;;;;;;;16.70;99.90;;;;;;4992724;28;19993;-82
2022/09/10 09:35:51;;;;;;;;;;;16.80;99.90;;;;;;4995420;28;19913;-83
2022/09/10 09:38:21;;;;;;;;;;;16.90;99.90;;;;;;4994216;28;20390;-80
2022/09/10 09:40:48;;;;;;;;;;;16.90;99.90;;;;;;4991860;28;19914;-85
2022/09/10 09:43:22;;;;;;;;;;;16.80;99.90;;;;;;4993866;28;19914;-83
2022/09/10 09:45:49;;;;;;;;;;;16.80;99.90;;;;;;4987297;28;19910;-84
2022/09/10 09:48:15;;;;;;;;;;;16.80;99.90;;;;;;5001715;28;19945;-84
2022/09/10 09:50:42;;;;;;;;;;;16.80;99.90;;;;;;4989392;28;19914;-82
2022/09/10 09:53:14;;;;;;;;;;;16.80;99.90;;;;;;4987771;28;19925;-81
2022/09/10 09:55:43;;;;;;;;;;;16.80;99.90;;;;;;4993402;28;19993;-82
2022/09/10 09:58:17;;;;;;;;;;;16.80;99.90;;;;;;4990992;28;19916;-82
2022/09/10 10:00:43;;;;;;;;;;;16.80;99.90;;;;;;4989406;28;19956;-84
2022/09/10 10:03:15;;;;;;;;;;;16.80;99.90;;;;;;4991065;28;19910;-82
2022/09/10 10:05:41;;;;;;;;;;;16.80;99.90;;;;;;4989851;28;19913;-85
2022/09/10 10:08:23;;;;;;;;;;;16.70;99.90;;;;;;4990962;28;20184;-81
2022/09/10 10:10:50;;;;;;;;;;;16.70;99.90;;;;;;4991078;28;19906;-83
2022/09/10 10:13:20;;;;;;;;;;;16.70;99.90;;;;;;4993096;28;19914;-86
2022/09/10 10:15:45;;;;;;;;;;;16.60;99.90;;;;;;4983434;28;19910;-84
2022/09/10 10:18:20;;;;;;;;;;;16.60;99.90;;;;;;4991442;28;20359;-83
2022/09/10 10:20:45;;;;;;;;;;;16.70;99.90;;;;;;4987419;28;19941;-85
2022/09/10 10:23:29;;;;;;;;;;;16.80;99.90;;;;;;4987940;28;19913;-81
2022/09/10 10:26:14;;;;;;;;;;;16.90;99.90;;;;;;4992290;28;20280;-81
2022/09/10 10:28:43;;;;;;;;;;;17.00;99.90;;;;;;5005154;28;20386;-83
2022/09/10 10:31:10;;;;;;;;;;;17.10;99.90;;;;;;4989484;28;20033;-82
2022/09/10 10:33:39;;;;;;;;;;;17.10;99.90;;;;;;4987953;28;19985;-82
2022/09/10 10:36:13;;;;;;;;;;;17.20;99.90;;;;;;4983083;28;19997;-83
2022/09/10 10:38:41;;;;;;;;;;;17.20;99.90;;;;;;4985525;28;20062;-81
2022/09/10 10:41:19;;;;;;;;;;;17.00;99.90;;;;;;4993535;28;19981;-80
2022/09/10 10:43:47;;;;;;;;;;;16.90;99.90;;;;;;4987094;28;19913;-85
2022/09/10 10:46:19;;;;;;;;;;;16.80;99.90;;;;;;4996276;28;20299;-81
2022/09/10 10:48:45;;;;;;;;;;;16.80;99.90;;;;;;4989496;28;19918;-81
2022/09/10 10:51:29;;;;;;;;;;;16.70;99.90;;;;;;5000617;28;19918;-83
2022/09/10 10:54:14;;;;;;;;;;;16.50;99.90;;;;;;4987808;28;19910;-79
2022/09/10 10:56:41;;;;;;;;;;;16.60;99.90;;;;;;4992749;28;19922;-80
2022/09/10 10:59:16;;;;;;;;;;;16.60;99.90;;;;;;4988771;28;19910;-80
2022/09/10 11:01:44;;;;;;;;;;;16.60;99.90;;;;;;4979628;28;19913;-80
2022/09/10 11:04:22;;;;;;;;;;;16.60;99.90;;;;;;4981361;28;19921;-81
2022/09/10 11:06:51;;;;;;;;;;;16.80;99.90;;;;;;4991080;28;19910;-82
2022/09/10 11:09:25;;;;;;;;;;;16.90;99.90;;;;;;4989105;28;20426;-80
2022/09/10 11:11:51;;;;;;;;;;;;;;;;;;4990415;28;19916;-79
2022/09/10 11:14:26;;;;;;;;;;;17.10;99.90;;;;;;4989548;28;19917;-79
2022/09/10 11:17:10;;;;;;;;;;;17.30;99.90;;;;;;4993877;28;19914;-82
2022/09/10 11:19:46;;;;;;;;;;;17.30;99.90;;;;;;4988447;28;19917;-81
2022/09/10 11:22:15;;;;;;;;;;;17.40;99.90;;;;;;4982711;28;19918;-79
2022/09/10 11:24:49;;;;;;;;;;;17.30;99.90;;;;;;4983004;28;20133;-82
2022/09/10 11:27:17;;;;;;;;;;;17.30;99.90;;;;;;4992521;28;19980;-81
2022/09/10 11:29:44;;;;;;;;;;;17.30;99.90;;;;;;4988629;28;19921;-83
2022/09/10 11:32:31;;;;;;;;;;;17.30;99.90;;;;;;4984192;28;19994;-80
2022/09/10 11:35:06;;;;;;;;;;;16.70;99.90;;;;;;4982896;28;19909;-83
2022/09/10 11:37:47;;;;;;;;;;;17.40;99.90;;;;;;4981327;28;19925;-80
2022/09/10 11:40:19;;;;;;;;;;;17.30;99.90;;;;;;4981893;28;20442;-81
2022/09/10 11:42:49;;;;;;;;;;;17.10;99.90;;;;;;4994371;28;20033;-83
2022/09/10 11:45:18;;;;;;;;;;;17.20;99.90;;;;;;4987070;28;19914;-82
2022/09/10 11:47:49;;;;;;;;;;;17.20;99.90;;;;;;4989645;28;19972;-82
2022/09/10 11:50:33;;;;;;;;;;;17.10;99.90;;;;;;4988919;28;20005;-81
2022/09/10 11:52:59;;;;;;;;;;;17.10;99.90;;;;;;4992113;28;19941;-81
2022/09/10 11:55:51;;;;;;;;;;;17.10;99.90;;;;;;4998056;28;19909;-82
2022/09/10 11:58:23;;;;;;;;;;;16.90;99.90;;;;;;4968498;28;20291;-82
2022/09/10 12:01:04;;;;;;;;;;;16.90;99.90;;;;;;4995539;28;19917;-81
2022/09/10 12:03:46;;;;;;;;;;;16.70;99.90;;;;;;4991507;28;19918;-81
2022/09/10 12:06:20;;;;;;;;;;;16.60;99.90;;;;;;4996248;28;19918;-83
2022/09/10 12:09:04;;;;;;;;;;;16.60;99.90;;;;;;4996802;28;19995;-82
2022/09/10 12:11:50;;;;;;;;;;;16.70;99.90;;;;;;4995996;28;20470;-83
2022/09/10 12:14:16;;;;;;;;;;;16.80;99.90;;;;;;4994820;28;19914;-82
2022/09/10 12:16:45;;;;;;;;;;;17.10;99.90;;;;;;4991467;28;19921;-83
2022/09/10 12:19:19;;;;;;;;;;;16.30;99.90;;;;;;4991059;28;19914;-81
2022/09/10 12:21:48;;;;;;;;;;;17.40;99.90;;;;;;4987411;28;19974;-81
2022/09/10 12:24:26;;;;;;;;;;;17.70;99.90;;;;;;4994162;28;19909;-83
2022/09/10 12:26:53;;;;;;;;;;;18.20;99.90;;;;;;4996476;28;19910;-81
2022/09/10 12:29:32;;;;;;;;;;;18.20;99.90;;;;;;4991873;28;19910;-82
2022/09/10 12:32:07;;;;;;;;;;;18.50;99.90;;;;;;4997570;28;19910;-79
2022/09/10 12:34:33;;;;;;;;;;;18.50;99.90;;;;;;5000035;28;19913;-81
2022/09/10 12:36:58;;;;;;;;;;;18.50;99.90;;;;;;4993331;28;20295;-79
2022/09/10 12:39:27;;;;;;;;;;;18.50;99.90;;;;;;4991840;28;19935;-80
2022/09/10 12:41:56;;;;;;;;;;;18.70;99.90;;;;;;4998304;28;19914;-82
2022/09/10 12:44:27;;;;;;;;;;;18.60;99.90;;;;;;4997230;28;19921;-81
2022/09/10 12:47:12;;;;;;;;;;;18.60;99.90;;;;;;5001650;28;19949;-83
2022/09/10 12:49:57;;;;;;;;;;;18.60;99.90;;;;;;5000083;28;19918;-81
2022/09/10 12:52:33;;;;;;;;;;;18.50;99.90;;;;;;4991801;28;19925;-79
2022/09/10 12:55:14;;;;;;;;;;;18.40;99.90;;;;;;4986473;28;19918;-83
2022/09/10 12:57:49;;;;;;;;;;;18.40;99.90;;;;;;5015326;28;19914;-77
2022/09/10 13:00:20;;;;;;;;;;;18.30;99.90;;;;;;4999676;28;19922;-82
2022/09/10 13:02:57;;;;;;;;;;;18.40;99.90;;;;;;4995781;28;19936;-80
2022/09/10 13:05:52;;;;;;;;;;;18.30;99.90;;;;;;4999243;28;19945;-80
2022/09/10 13:08:36;;;;;;;;;;;18.20;99.90;;;;;;5000918;28;19910;-81
2022/09/10 13:11:21;;;;;;;;;;;18.20;99.90;;;;;;4993707;28;19921;-81
2022/09/10 13:13:53;;;;;;;;;;;18.10;99.90;;;;;;4993947;28;19913;-81
2022/09/10 13:16:25;;;;;;;;;;;18.10;99.90;;;;;;4994739;28;20367;-82
2022/09/10 13:18:51;;;;;;;;;;;18.10;99.90;;;;;;4987371;28;19924;-85
2022/09/10 13:21:20;;;;;;;;;;;18.10;99.90;;;;;;4993347;28;19914;-80
2022/09/10 13:23:46;;;;;;;;;;;18.10;99.90;;;;;;4999633;28;19943;-82
2022/09/10 13:26:27;;;;;;;;;;;18.00;99.90;;;;;;4999635;28;19921;-82
2022/09/10 13:28:53;;;;;;;;;;;17.90;99.90;;;;;;4988962;28;19972;-81
2022/09/10 13:31:31;;;;;;;;;;;17.90;99.90;;;;;;5005218;28;19969;-82
2022/09/10 13:34:02;;;;;;;;;;;17.80;99.90;;;;;;5003784;28;20387;-79
2022/09/10 13:36:31;;;;;;;;;;;18.00;99.90;;;;;;5005477;28;19910;-80
2022/09/10 13:39:18;;;;;;;;;;;18.10;99.90;;;;;;4990325;28;19914;-82
2022/09/10 13:41:43;;;;;;;;;;;18.30;99.90;;;;;;5003950;28;19916;-84
2022/09/10 13:44:32;;;;;;;;;;;18.30;99.90;;;;;;4997866;28;19909;-81
2022/09/10 13:47:02;;;;;;;;;;;18.40;99.90;;;;;;4977544;28;19913;-80
2022/09/10 13:49:33;;;;;;;;;;;19.50;99.90;;;;;;4992713;28;19929;-80
2022/09/10 13:52:00;;;;;;;;;;;18.30;99.90;;;;;;5002082;28;19910;-80
2022/09/10 13:54:33;;;;;;;;;;;18.30;99.90;;;;;;4986375;28;19918;-80
2022/09/10 13:57:09;;;;;;;;;;;18.30;99.90;;;;;;4994128;28;19924;-80
2022/09/10 13:59:35;;;;;;;;;;;18.30;99.90;;;;;;4998773;28;19922;-80
2022/09/10 14:02:01;;;;;;;;;;;18.30;99.90;;;;;;4980799;28;20368;-78
2022/09/10 14:04:27;;;;;;;;;;;18.30;99.90;;;;;;4994050;28;19910;-78
2022/09/10 14:07:11;;;;;;;;;;;18.40;99.90;;;;;;4994809;28;19959;-80
2022/09/10 14:09:48;;;;;;;;;;;18.40;99.90;;;;;;4984959;28;20072;-79
2022/09/10 14:12:14;;;;;;;;;;;18.50;99.90;;;;;;4991093;28;19977;-83
2022/09/10 14:14:51;;;;;;;;;;;18.60;99.90;;;;;;4983552;28;20202;-81
2022/09/10 14:17:30;;;;;;;;;;;18.60;99.90;;;;;;4985466;28;19914;-80
2022/09/10 14:20:00;;;;;;;;;;;18.40;99.90;;;;;;4992635;28;19918;-80
2022/09/10 14:22:26;;;;;;;;;;;18.30;99.90;;;;;;4987456;28;19953;-83
2022/09/10 14:24:52;;;;;;;;;;;18.20;99.90;;;;;;4990656;28;20238;-80
2022/09/10 14:27:18;;;;;;;;;;;18.10;99.90;;;;;;4994138;28;19926;-83
2022/09/10 14:29:45;;;;;;;;;;;18.10;99.90;;;;;;4993234;28;20122;-83
2022/09/10 14:32:36;;;;;;;;;;;18.00;99.90;;;;;;4991500;28;20293;-80